sensor_id;sensor_type;location;lat;lon;timestamp;P1;durP1;ratioP1;P2;durP2;ratioP2
70850;SDS011;58475;49.662;9.636;2023-05-15T00:01:28;5.63;;;3.15;;
70850;SDS011;58475;49.662;9.636;2023-05-15T00:03:54;6.25;;;3.30;;
70850;SDS011;58475;49.662;9.636;2023-05-15T00:06:20;5.30;;;3.03;;
70850;SDS011;58475;49.662;9.636;2023-05-15T00:08:45;6.60;;;3.60;;
70850;SDS011;58475;49.662;9.636;2023-05-15T00:11:11;6.93;;;3.28;;
70850;SDS011;58475;49.662;9.636;2023-05-15T00:13:36;6.43;;;3.33;;
70850;SDS011;58475;49.662;9.636;2023-05-15T00:16:03;6.22;;;3.35;;
70850;SDS011;58475;49.662;9.636;2023-05-15T00:18:30;8.15;;;3.28;;
70850;SDS011;58475;49.662;9.636;2023-05-15T00:20:55;5.38;;;3.08;;
70850;SDS011;58475;49.662;9.636;2023-05-15T00:23:20;6.20;;;3.53;;
70850;SDS011;58475;49.662;9.636;2023-05-15T00:25:46;6.13;;;3.22;;
70850;SDS011;58475;49.662;9.636;2023-05-15T00:28:11;6.57;;;3.25;;
70850;SDS011;58475;49.662;9.636;2023-05-15T00:30:36;7.05;;;3.42;;
70850;SDS011;58475;49.662;9.636;2023-05-15T00:33:02;6.43;;;3.50;;
70850;SDS011;58475;49.662;9.636;2023-05-15T00:35:27;6.25;;;3.13;;
70850;SDS011;58475;49.662;9.636;2023-05-15T00:37:53;5.72;;;3.20;;
70850;SDS011;58475;49.662;9.636;2023-05-15T00:40:19;7.70;;;3.00;;
70850;SDS011;58475;49.662;9.636;2023-05-15T00:42:47;6.57;;;3.13;;
70850;SDS011;58475;49.662;9.636;2023-05-15T00:45:15;5.88;;;3.15;;
70850;SDS011;58475;49.662;9.636;2023-05-15T00:47:41;6.85;;;2.88;;
70850;SDS011;58475;49.662;9.636;2023-05-15T00:50:07;5.50;;;3.10;;
70850;SDS011;58475;49.662;9.636;2023-05-15T00:52:33;6.32;;;3.38;;
70850;SDS011;58475;49.662;9.636;2023-05-15T00:55:00;7.25;;;3.03;;
70850;SDS011;58475;49.662;9.636;2023-05-15T00:57:26;6.95;;;3.25;;
70850;SDS011;58475;49.662;9.636;2023-05-15T00:59:51;7.15;;;3.30;;
70850;SDS011;58475;49.662;9.636;2023-05-15T01:02:18;5.60;;;2.95;;
70850;SDS011;58475;49.662;9.636;2023-05-15T01:04:44;7.07;;;2.95;;
70850;SDS011;58475;49.662;9.636;2023-05-15T01:07:09;5.70;;;3.00;;
70850;SDS011;58475;49.662;9.636;2023-05-15T01:09:35;5.40;;;2.75;;
70850;SDS011;58475;49.662;9.636;2023-05-15T01:12:08;5.22;;;2.92;;
70850;SDS011;58475;49.662;9.636;2023-05-15T01:14:35;8.65;;;3.47;;
70850;SDS011;58475;49.662;9.636;2023-05-15T01:17:00;6.03;;;3.28;;
70850;SDS011;58475;49.662;9.636;2023-05-15T01:19:26;6.68;;;3.42;;
70850;SDS011;58475;49.662;9.636;2023-05-15T01:21:56;7.15;;;3.55;;
70850;SDS011;58475;49.662;9.636;2023-05-15T01:27:38;5.30;;;2.70;;
70850;SDS011;58475;49.662;9.636;2023-05-15T01:30:18;6.00;;;3.10;;
70850;SDS011;58475;49.662;9.636;2023-05-15T01:35:43;5.55;;;3.20;;
70850;SDS011;58475;49.662;9.636;2023-05-15T01:38:23;6.50;;;3.40;;
70850;SDS011;58475;49.662;9.636;2023-05-15T01:41:01;6.80;;;3.67;;
70850;SDS011;58475;49.662;9.636;2023-05-15T01:43:34;5.82;;;3.40;;
70850;SDS011;58475;49.662;9.636;2023-05-15T01:46:03;7.47;;;3.50;;
70850;SDS011;58475;49.662;9.636;2023-05-15T01:48:31;5.88;;;3.38;;
70850;SDS011;58475;49.662;9.636;2023-05-15T01:50:59;6.13;;;3.35;;
70850;SDS011;58475;49.662;9.636;2023-05-15T01:53:31;6.05;;;3.63;;
70850;SDS011;58475;49.662;9.636;2023-05-15T01:55:58;6.63;;;3.37;;
70850;SDS011;58475;49.662;9.636;2023-05-15T01:58:25;8.48;;;3.67;;
70850;SDS011;58475;49.662;9.636;2023-05-15T02:00:51;6.43;;;3.67;;
70850;SDS011;58475;49.662;9.636;2023-05-15T02:03:17;6.43;;;3.63;;
70850;SDS011;58475;49.662;9.636;2023-05-15T02:05:44;6.10;;;3.40;;
70850;SDS011;58475;49.662;9.636;2023-05-15T02:08:13;6.28;;;3.40;;
70850;SDS011;58475;49.662;9.636;2023-05-15T02:10:41;5.65;;;3.05;;
70850;SDS011;58475;49.662;9.636;2023-05-15T02:13:07;6.72;;;3.40;;
70850;SDS011;58475;49.662;9.636;2023-05-15T02:15:34;6.97;;;3.17;;
70850;SDS011;58475;49.662;9.636;2023-05-15T02:17:59;5.75;;;3.25;;
70850;SDS011;58475;49.662;9.636;2023-05-15T02:20:25;5.40;;;2.72;;
70850;SDS011;58475;49.662;9.636;2023-05-15T02:22:51;7.63;;;3.28;;
70850;SDS011;58475;49.662;9.636;2023-05-15T02:25:16;5.78;;;3.20;;
70850;SDS011;58475;49.662;9.636;2023-05-15T02:30:16;6.90;;;3.00;;
70850;SDS011;58475;49.662;9.636;2023-05-15T02:33:11;5.47;;;3.10;;
70850;SDS011;58475;49.662;9.636;2023-05-15T02:38:17;5.50;;;3.00;;
70850;SDS011;58475;49.662;9.636;2023-05-15T02:40:44;5.95;;;3.25;;
70850;SDS011;58475;49.662;9.636;2023-05-15T02:43:12;5.95;;;3.22;;
70850;SDS011;58475;49.662;9.636;2023-05-15T02:45:39;8.15;;;3.70;;
70850;SDS011;58475;49.662;9.636;2023-05-15T02:48:06;6.55;;;3.67;;
70850;SDS011;58475;49.662;9.636;2023-05-15T02:50:33;6.00;;;3.58;;
70850;SDS011;58475;49.662;9.636;2023-05-15T02:53:05;5.70;;;3.15;;
70850;SDS011;58475;49.662;9.636;2023-05-15T02:55:34;6.90;;;3.00;;
70850;SDS011;58475;49.662;9.636;2023-05-15T02:58:01;5.70;;;2.70;;
70850;SDS011;58475;49.662;9.636;2023-05-15T03:00:27;5.45;;;3.10;;
70850;SDS011;58475;49.662;9.636;2023-05-15T03:02:53;6.53;;;3.33;;
70850;SDS011;58475;49.662;9.636;2023-05-15T03:05:18;5.90;;;3.17;;
70850;SDS011;58475;49.662;9.636;2023-05-15T03:07:43;8.00;;;2.95;;
70850;SDS011;58475;49.662;9.636;2023-05-15T03:10:09;5.60;;;3.20;;
70850;SDS011;58475;49.662;9.636;2023-05-15T03:12:35;5.55;;;3.10;;
70850;SDS011;58475;49.662;9.636;2023-05-15T03:15:00;6.13;;;2.95;;
70850;SDS011;58475;49.662;9.636;2023-05-15T03:17:26;5.35;;;3.17;;
70850;SDS011;58475;49.662;9.636;2023-05-15T03:19:51;5.32;;;3.00;;
70850;SDS011;58475;49.662;9.636;2023-05-15T03:22:17;5.53;;;3.13;;
70850;SDS011;58475;49.662;9.636;2023-05-15T03:24:42;5.30;;;3.08;;
70850;SDS011;58475;49.662;9.636;2023-05-15T03:27:08;6.20;;;3.67;;
70850;SDS011;58475;49.662;9.636;2023-05-15T03:29:33;5.93;;;3.42;;
70850;SDS011;58475;49.662;9.636;2023-05-15T03:31:58;7.20;;;3.58;;
70850;SDS011;58475;49.662;9.636;2023-05-15T03:34:24;6.97;;;3.60;;
70850;SDS011;58475;49.662;9.636;2023-05-15T03:36:49;6.38;;;3.65;;
70850;SDS011;58475;49.662;9.636;2023-05-15T03:39:14;6.88;;;3.92;;
70850;SDS011;58475;49.662;9.636;2023-05-15T03:41:40;6.47;;;3.67;;
70850;SDS011;58475;49.662;9.636;2023-05-15T03:44:05;6.57;;;3.63;;
70850;SDS011;58475;49.662;9.636;2023-05-15T03:46:30;6.20;;;3.55;;
70850;SDS011;58475;49.662;9.636;2023-05-15T03:48:56;8.48;;;3.35;;
70850;SDS011;58475;49.662;9.636;2023-05-15T03:51:21;7.60;;;3.72;;
70850;SDS011;58475;49.662;9.636;2023-05-15T03:53:51;7.03;;;3.80;;
70850;SDS011;58475;49.662;9.636;2023-05-15T03:56:20;7.32;;;3.90;;
70850;SDS011;58475;49.662;9.636;2023-05-15T03:58:46;6.88;;;4.15;;
70850;SDS011;58475;49.662;9.636;2023-05-15T04:01:11;7.95;;;3.50;;
70850;SDS011;58475;49.662;9.636;2023-05-15T04:03:36;6.72;;;3.40;;
70850;SDS011;58475;49.662;9.636;2023-05-15T04:06:02;6.38;;;3.47;;
70850;SDS011;58475;49.662;9.636;2023-05-15T04:08:27;6.88;;;4.10;;
70850;SDS011;58475;49.662;9.636;2023-05-15T04:10:53;7.28;;;3.75;;
70850;SDS011;58475;49.662;9.636;2023-05-15T04:13:18;6.28;;;3.83;;
70850;SDS011;58475;49.662;9.636;2023-05-15T04:15:43;8.27;;;4.07;;
70850;SDS011;58475;49.662;9.636;2023-05-15T04:18:09;6.72;;;3.45;;
70850;SDS011;58475;49.662;9.636;2023-05-15T04:20:35;7.95;;;4.03;;
70850;SDS011;58475;49.662;9.636;2023-05-15T04:23:00;7.22;;;4.20;;
70850;SDS011;58475;49.662;9.636;2023-05-15T04:25:28;10.25;;;3.90;;
70850;SDS011;58475;49.662;9.636;2023-05-15T04:27:54;9.13;;;4.43;;
70850;SDS011;58475;49.662;9.636;2023-05-15T04:30:20;8.65;;;4.68;;
70850;SDS011;58475;49.662;9.636;2023-05-15T04:32:45;8.35;;;4.97;;
70850;SDS011;58475;49.662;9.636;2023-05-15T04:35:10;8.65;;;4.65;;
70850;SDS011;58475;49.662;9.636;2023-05-15T04:37:37;14.55;;;4.97;;
70850;SDS011;58475;49.662;9.636;2023-05-15T04:40:04;18.95;;;5.25;;
70850;SDS011;58475;49.662;9.636;2023-05-15T04:42:31;14.25;;;5.13;;
70850;SDS011;58475;49.662;9.636;2023-05-15T04:44:56;9.70;;;4.60;;
70850;SDS011;58475;49.662;9.636;2023-05-15T04:47:22;10.65;;;5.07;;
70850;SDS011;58475;49.662;9.636;2023-05-15T04:49:47;25.48;;;5.75;;
70850;SDS011;58475;49.662;9.636;2023-05-15T04:52:14;11.13;;;5.15;;
70850;SDS011;58475;49.662;9.636;2023-05-15T04:54:40;19.45;;;5.50;;
70850;SDS011;58475;49.662;9.636;2023-05-15T04:57:06;37.60;;;5.63;;
70850;SDS011;58475;49.662;9.636;2023-05-15T04:59:31;28.10;;;6.25;;
70850;SDS011;58475;49.662;9.636;2023-05-15T05:02:00;13.23;;;5.72;;
70850;SDS011;58475;49.662;9.636;2023-05-15T05:04:25;13.80;;;5.50;;
70850;SDS011;58475;49.662;9.636;2023-05-15T05:06:51;14.60;;;5.50;;
70850;SDS011;58475;49.662;9.636;2023-05-15T05:09:17;9.45;;;5.30;;
70850;SDS011;58475;49.662;9.636;2023-05-15T05:11:43;10.98;;;4.93;;
70850;SDS011;58475;49.662;9.636;2023-05-15T05:14:09;11.15;;;5.28;;
70850;SDS011;58475;49.662;9.636;2023-05-15T05:16:35;11.75;;;5.25;;
70850;SDS011;58475;49.662;9.636;2023-05-15T05:19:00;10.00;;;5.38;;
70850;SDS011;58475;49.662;9.636;2023-05-15T05:21:26;8.50;;;4.80;;
70850;SDS011;58475;49.662;9.636;2023-05-15T05:23:51;18.58;;;5.30;;
70850;SDS011;58475;49.662;9.636;2023-05-15T05:26:16;9.82;;;5.20;;
70850;SDS011;58475;49.662;9.636;2023-05-15T05:28:42;11.05;;;4.50;;
70850;SDS011;58475;49.662;9.636;2023-05-15T05:31:07;8.32;;;4.25;;
70850;SDS011;58475;49.662;9.636;2023-05-15T05:33:33;8.57;;;4.47;;
70850;SDS011;58475;49.662;9.636;2023-05-15T05:35:58;10.05;;;4.65;;
70850;SDS011;58475;49.662;9.636;2023-05-15T05:38:23;8.63;;;4.88;;
70850;SDS011;58475;49.662;9.636;2023-05-15T05:40:51;9.30;;;4.80;;
70850;SDS011;58475;49.662;9.636;2023-05-15T05:43:17;7.90;;;5.13;;
70850;SDS011;58475;49.662;9.636;2023-05-15T05:45:42;7.82;;;5.15;;
70850;SDS011;58475;49.662;9.636;2023-05-15T05:48:07;8.57;;;4.28;;
70850;SDS011;58475;49.662;9.636;2023-05-15T05:50:33;7.95;;;4.60;;
70850;SDS011;58475;49.662;9.636;2023-05-15T05:52:58;8.23;;;4.50;;
70850;SDS011;58475;49.662;9.636;2023-05-15T05:55:24;13.10;;;5.45;;
70850;SDS011;58475;49.662;9.636;2023-05-15T05:57:49;8.90;;;4.65;;
70850;SDS011;58475;49.662;9.636;2023-05-15T06:00:15;8.15;;;4.40;;
70850;SDS011;58475;49.662;9.636;2023-05-15T06:02:41;7.07;;;4.32;;
70850;SDS011;58475;49.662;9.636;2023-05-15T06:05:06;11.27;;;4.75;;
70850;SDS011;58475;49.662;9.636;2023-05-15T06:07:32;8.68;;;4.88;;
70850;SDS011;58475;49.662;9.636;2023-05-15T06:09:58;7.35;;;4.10;;
70850;SDS011;58475;49.662;9.636;2023-05-15T06:12:23;7.90;;;4.85;;
70850;SDS011;58475;49.662;9.636;2023-05-15T06:14:49;9.02;;;4.70;;
70850;SDS011;58475;49.662;9.636;2023-05-15T06:17:14;7.30;;;4.30;;
70850;SDS011;58475;49.662;9.636;2023-05-15T06:19:40;8.02;;;4.90;;
70850;SDS011;58475;49.662;9.636;2023-05-15T06:22:05;7.20;;;4.72;;
70850;SDS011;58475;49.662;9.636;2023-05-15T06:24:30;7.28;;;4.50;;
70850;SDS011;58475;49.662;9.636;2023-05-15T06:26:56;9.57;;;4.30;;
70850;SDS011;58475;49.662;9.636;2023-05-15T06:29:21;8.10;;;4.40;;
70850;SDS011;58475;49.662;9.636;2023-05-15T06:31:47;6.75;;;4.35;;
70850;SDS011;58475;49.662;9.636;2023-05-15T06:34:12;7.72;;;4.43;;
70850;SDS011;58475;49.662;9.636;2023-05-15T06:36:38;7.32;;;4.85;;
70850;SDS011;58475;49.662;9.636;2023-05-15T06:39:03;7.53;;;4.53;;
70850;SDS011;58475;49.662;9.636;2023-05-15T06:41:29;9.23;;;4.95;;
70850;SDS011;58475;49.662;9.636;2023-05-15T06:43:55;6.85;;;4.65;;
70850;SDS011;58475;49.662;9.636;2023-05-15T06:46:20;7.00;;;4.40;;
70850;SDS011;58475;49.662;9.636;2023-05-15T06:48:46;7.05;;;4.65;;
70850;SDS011;58475;49.662;9.636;2023-05-15T06:51:12;7.80;;;4.47;;
70850;SDS011;58475;49.662;9.636;2023-05-15T06:53:39;7.07;;;4.25;;
70850;SDS011;58475;49.662;9.636;2023-05-15T06:56:05;7.55;;;4.40;;
70850;SDS011;58475;49.662;9.636;2023-05-15T06:58:33;6.43;;;4.20;;
70850;SDS011;58475;49.662;9.636;2023-05-15T07:00:59;6.47;;;3.97;;
70850;SDS011;58475;49.662;9.636;2023-05-15T07:03:27;6.45;;;4.30;;
70850;SDS011;58475;49.662;9.636;2023-05-15T07:05:53;6.85;;;4.25;;
70850;SDS011;58475;49.662;9.636;2023-05-15T07:08:18;10.25;;;4.50;;
70850;SDS011;58475;49.662;9.636;2023-05-15T07:10:43;6.55;;;4.35;;
70850;SDS011;58475;49.662;9.636;2023-05-15T07:13:09;6.53;;;4.35;;
70850;SDS011;58475;49.662;9.636;2023-05-15T07:15:34;7.32;;;4.50;;
70850;SDS011;58475;49.662;9.636;2023-05-15T07:18:00;6.60;;;4.22;;
70850;SDS011;58475;49.662;9.636;2023-05-15T07:20:25;6.57;;;4.20;;
70850;SDS011;58475;49.662;9.636;2023-05-15T07:22:51;6.95;;;4.20;;
70850;SDS011;58475;49.662;9.636;2023-05-15T07:25:17;6.57;;;4.10;;
70850;SDS011;58475;49.662;9.636;2023-05-15T07:27:42;5.88;;;3.90;;
70850;SDS011;58475;49.662;9.636;2023-05-15T07:30:08;5.70;;;3.67;;
70850;SDS011;58475;49.662;9.636;2023-05-15T07:32:33;10.32;;;4.20;;
70850;SDS011;58475;49.662;9.636;2023-05-15T07:34:59;7.03;;;4.10;;
70850;SDS011;58475;49.662;9.636;2023-05-15T07:37:25;6.18;;;3.78;;
70850;SDS011;58475;49.662;9.636;2023-05-15T07:39:50;6.22;;;4.00;;
70850;SDS011;58475;49.662;9.636;2023-05-15T07:42:15;7.13;;;4.03;;
70850;SDS011;58475;49.662;9.636;2023-05-15T07:44:44;5.85;;;3.65;;
70850;SDS011;58475;49.662;9.636;2023-05-15T07:47:09;8.07;;;4.40;;
70850;SDS011;58475;49.662;9.636;2023-05-15T07:49:34;5.68;;;3.60;;
70850;SDS011;58475;49.662;9.636;2023-05-15T07:52:00;6.00;;;3.72;;
70850;SDS011;58475;49.662;9.636;2023-05-15T07:54:26;5.78;;;3.95;;
70850;SDS011;58475;49.662;9.636;2023-05-15T07:56:51;6.50;;;4.00;;
70850;SDS011;58475;49.662;9.636;2023-05-15T07:59:17;6.32;;;4.50;;
70850;SDS011;58475;49.662;9.636;2023-05-15T08:01:43;6.20;;;4.18;;
70850;SDS011;58475;49.662;9.636;2023-05-15T08:04:08;5.97;;;4.00;;
70850;SDS011;58475;49.662;9.636;2023-05-15T08:06:34;8.55;;;4.20;;
70850;SDS011;58475;49.662;9.636;2023-05-15T08:09:02;5.72;;;3.70;;
70850;SDS011;58475;49.662;9.636;2023-05-15T08:11:28;5.45;;;3.60;;
70850;SDS011;58475;49.662;9.636;2023-05-15T08:13:53;6.57;;;4.00;;
70850;SDS011;58475;49.662;9.636;2023-05-15T08:16:18;5.47;;;3.60;;
70850;SDS011;58475;49.662;9.636;2023-05-15T08:18:44;6.18;;;3.75;;
70850;SDS011;58475;49.662;9.636;2023-05-15T08:21:09;6.53;;;3.83;;
70850;SDS011;58475;49.662;9.636;2023-05-15T08:23:35;5.88;;;3.42;;
70850;SDS011;58475;49.662;9.636;2023-05-15T08:26:01;5.82;;;3.88;;
70850;SDS011;58475;49.662;9.636;2023-05-15T08:28:26;5.50;;;3.60;;
70850;SDS011;58475;49.662;9.636;2023-05-15T08:30:51;6.22;;;4.00;;
70850;SDS011;58475;49.662;9.636;2023-05-15T08:33:17;5.35;;;3.60;;
70850;SDS011;58475;49.662;9.636;2023-05-15T08:35:42;5.80;;;3.80;;
70850;SDS011;58475;49.662;9.636;2023-05-15T08:38:07;5.30;;;3.67;;
70850;SDS011;58475;49.662;9.636;2023-05-15T08:40:33;7.55;;;4.07;;
70850;SDS011;58475;49.662;9.636;2023-05-15T08:43:00;7.47;;;4.00;;
70850;SDS011;58475;49.662;9.636;2023-05-15T08:45:28;6.17;;;3.87;;
70850;SDS011;58475;49.662;9.636;2023-05-15T08:47:53;7.47;;;3.80;;
70850;SDS011;58475;49.662;9.636;2023-05-15T08:50:19;6.00;;;3.78;;
70850;SDS011;58475;49.662;9.636;2023-05-15T08:52:47;6.53;;;3.80;;
70850;SDS011;58475;49.662;9.636;2023-05-15T08:55:14;6.20;;;3.92;;
70850;SDS011;58475;49.662;9.636;2023-05-15T08:57:40;6.05;;;4.15;;
70850;SDS011;58475;49.662;9.636;2023-05-15T09:00:07;5.30;;;3.67;;
70850;SDS011;58475;49.662;9.636;2023-05-15T09:02:36;6.32;;;3.92;;
70850;SDS011;58475;49.662;9.636;2023-05-15T09:05:03;6.10;;;3.88;;
70850;SDS011;58475;49.662;9.636;2023-05-15T09:07:29;6.65;;;3.88;;
70850;SDS011;58475;49.662;9.636;2023-05-15T09:09:55;6.28;;;3.90;;
70850;SDS011;58475;49.662;9.636;2023-05-15T09:12:23;6.28;;;4.15;;
70850;SDS011;58475;49.662;9.636;2023-05-15T09:14:49;6.55;;;4.20;;
70850;SDS011;58475;49.662;9.636;2023-05-15T09:17:14;6.10;;;4.30;;
70850;SDS011;58475;49.662;9.636;2023-05-15T09:19:40;7.22;;;4.10;;
70850;SDS011;58475;49.662;9.636;2023-05-15T09:22:15;5.88;;;4.03;;
70850;SDS011;58475;49.662;9.636;2023-05-15T09:24:42;8.07;;;4.40;;
70850;SDS011;58475;49.662;9.636;2023-05-15T09:27:09;6.88;;;4.10;;
70850;SDS011;58475;49.662;9.636;2023-05-15T09:29:35;6.57;;;4.00;;
70850;SDS011;58475;49.662;9.636;2023-05-15T09:32:06;5.40;;;3.67;;
70850;SDS011;58475;49.662;9.636;2023-05-15T09:34:33;6.47;;;4.25;;
70850;SDS011;58475;49.662;9.636;2023-05-15T09:37:01;6.47;;;4.00;;
70850;SDS011;58475;49.662;9.636;2023-05-15T09:39:27;5.25;;;3.70;;
70850;SDS011;58475;49.662;9.636;2023-05-15T09:41:53;6.13;;;3.80;;
70850;SDS011;58475;49.662;9.636;2023-05-15T09:44:19;5.20;;;3.60;;
70850;SDS011;58475;49.662;9.636;2023-05-15T09:46:49;5.80;;;3.78;;
70850;SDS011;58475;49.662;9.636;2023-05-15T09:49:14;5.50;;;3.58;;
70850;SDS011;58475;49.662;9.636;2023-05-15T09:51:42;7.38;;;4.07;;
70850;SDS011;58475;49.662;9.636;2023-05-15T09:54:12;10.93;;;3.90;;
70850;SDS011;58475;49.662;9.636;2023-05-15T09:56:40;8.85;;;3.90;;
70850;SDS011;58475;49.662;9.636;2023-05-15T09:59:13;5.22;;;3.53;;
70850;SDS011;58475;49.662;9.636;2023-05-15T10:01:43;6.60;;;4.05;;
70850;SDS011;58475;49.662;9.636;2023-05-15T10:04:10;5.88;;;3.78;;
70850;SDS011;58475;49.662;9.636;2023-05-15T10:06:38;6.65;;;3.90;;
70850;SDS011;58475;49.662;9.636;2023-05-15T10:09:05;5.78;;;3.67;;
70850;SDS011;58475;49.662;9.636;2023-05-15T10:11:34;6.30;;;3.92;;
70850;SDS011;58475;49.662;9.636;2023-05-15T10:14:00;5.47;;;3.72;;
70850;SDS011;58475;49.662;9.636;2023-05-15T10:16:37;9.00;;;3.42;;
70850;SDS011;58475;49.662;9.636;2023-05-15T10:19:04;6.28;;;3.60;;
70850;SDS011;58475;49.662;9.636;2023-05-15T10:21:31;6.30;;;3.65;;
70850;SDS011;58475;49.662;9.636;2023-05-15T10:23:58;6.28;;;4.03;;
70850;SDS011;58475;49.662;9.636;2023-05-15T10:28:59;7.10;;;3.95;;
70850;SDS011;58475;49.662;9.636;2023-05-15T10:31:26;5.50;;;3.58;;
70850;SDS011;58475;49.662;9.636;2023-05-15T10:33:53;6.82;;;3.63;;
70850;SDS011;58475;49.662;9.636;2023-05-15T10:36:19;5.90;;;3.80;;
70850;SDS011;58475;49.662;9.636;2023-05-15T10:38:45;6.18;;;3.80;;
70850;SDS011;58475;49.662;9.636;2023-05-15T10:41:12;7.10;;;3.92;;
70850;SDS011;58475;49.662;9.636;2023-05-15T10:43:40;9.05;;;3.90;;
70850;SDS011;58475;49.662;9.636;2023-05-15T10:46:06;6.43;;;4.10;;
70850;SDS011;58475;49.662;9.636;2023-05-15T10:48:32;5.68;;;3.95;;
70850;SDS011;58475;49.662;9.636;2023-05-15T10:50:59;5.93;;;4.00;;
70850;SDS011;58475;49.662;9.636;2023-05-15T10:53:25;6.15;;;3.97;;
70850;SDS011;58475;49.662;9.636;2023-05-15T10:55:51;6.28;;;4.10;;
70850;SDS011;58475;49.662;9.636;2023-05-15T10:58:16;7.53;;;4.10;;
70850;SDS011;58475;49.662;9.636;2023-05-15T11:00:45;6.55;;;4.35;;
70850;SDS011;58475;49.662;9.636;2023-05-15T11:03:14;6.95;;;4.47;;
70850;SDS011;58475;49.662;9.636;2023-05-15T11:08:38;8.38;;;4.35;;
70850;SDS011;58475;49.662;9.636;2023-05-15T11:11:05;8.50;;;4.22;;
70850;SDS011;58475;49.662;9.636;2023-05-15T11:24:28;10.05;;;4.43;;
70850;SDS011;58475;49.662;9.636;2023-05-15T11:26:58;7.43;;;3.95;;
70850;SDS011;58475;49.662;9.636;2023-05-15T11:29:24;8.63;;;4.53;;
70850;SDS011;58475;49.662;9.636;2023-05-15T11:31:50;7.85;;;4.40;;
70850;SDS011;58475;49.662;9.636;2023-05-15T11:34:16;7.22;;;4.45;;
70850;SDS011;58475;49.662;9.636;2023-05-15T11:36:53;7.25;;;4.35;;
70850;SDS011;58475;49.662;9.636;2023-05-15T11:39:22;7.63;;;5.00;;
70850;SDS011;58475;49.662;9.636;2023-05-15T11:41:48;8.00;;;4.80;;
70850;SDS011;58475;49.662;9.636;2023-05-15T11:44:18;8.45;;;5.30;;
70850;SDS011;58475;49.662;9.636;2023-05-15T11:46:45;8.38;;;4.88;;
70850;SDS011;58475;49.662;9.636;2023-05-15T11:49:10;7.03;;;4.85;;
70850;SDS011;58475;49.662;9.636;2023-05-15T11:51:36;7.57;;;5.32;;
70850;SDS011;58475;49.662;9.636;2023-05-15T11:54:07;7.78;;;5.15;;
70850;SDS011;58475;49.662;9.636;2023-05-15T11:56:35;9.25;;;4.90;;
70850;SDS011;58475;49.662;9.636;2023-05-15T11:59:08;7.75;;;4.75;;
70850;SDS011;58475;49.662;9.636;2023-05-15T12:01:40;6.53;;;4.63;;
70850;SDS011;58475;49.662;9.636;2023-05-15T12:04:16;9.33;;;4.80;;
70850;SDS011;58475;49.662;9.636;2023-05-15T12:06:42;7.60;;;4.28;;
70850;SDS011;58475;49.662;9.636;2023-05-15T12:09:17;7.65;;;4.32;;
70850;SDS011;58475;49.662;9.636;2023-05-15T12:11:50;10.13;;;7.00;;
70850;SDS011;58475;49.662;9.636;2023-05-15T12:14:16;8.05;;;5.80;;
70850;SDS011;58475;49.662;9.636;2023-05-15T12:16:41;7.10;;;4.75;;
70850;SDS011;58475;49.662;9.636;2023-05-15T12:19:07;7.13;;;4.80;;
70850;SDS011;58475;49.662;9.636;2023-05-15T12:21:34;6.63;;;4.70;;
70850;SDS011;58475;49.662;9.636;2023-05-15T12:23:59;7.75;;;4.70;;
70850;SDS011;58475;49.662;9.636;2023-05-15T12:26:25;8.13;;;5.00;;
70850;SDS011;58475;49.662;9.636;2023-05-15T12:28:53;6.75;;;4.68;;
70850;SDS011;58475;49.662;9.636;2023-05-15T12:31:19;7.82;;;5.00;;
70850;SDS011;58475;49.662;9.636;2023-05-15T12:33:45;7.13;;;4.85;;
70850;SDS011;58475;49.662;9.636;2023-05-15T12:36:10;7.22;;;4.80;;
70850;SDS011;58475;49.662;9.636;2023-05-15T12:38:36;6.43;;;4.75;;
70850;SDS011;58475;49.662;9.636;2023-05-15T12:41:03;7.40;;;4.60;;
70850;SDS011;58475;49.662;9.636;2023-05-15T12:43:29;6.55;;;4.43;;
70850;SDS011;58475;49.662;9.636;2023-05-15T12:45:55;7.75;;;4.63;;
70850;SDS011;58475;49.662;9.636;2023-05-15T12:48:21;5.90;;;4.47;;
70850;SDS011;58475;49.662;9.636;2023-05-15T12:50:47;7.88;;;4.60;;
70850;SDS011;58475;49.662;9.636;2023-05-15T12:53:14;8.18;;;4.70;;
70850;SDS011;58475;49.662;9.636;2023-05-15T12:55:40;7.57;;;5.07;;
70850;SDS011;58475;49.662;9.636;2023-05-15T12:58:08;7.15;;;5.13;;
70850;SDS011;58475;49.662;9.636;2023-05-15T13:00:39;7.50;;;4.60;;
70850;SDS011;58475;49.662;9.636;2023-05-15T13:03:09;7.82;;;4.90;;
70850;SDS011;58475;49.662;9.636;2023-05-15T13:05:35;6.63;;;4.65;;
70850;SDS011;58475;49.662;9.636;2023-05-15T13:08:02;8.73;;;4.90;;
70850;SDS011;58475;49.662;9.636;2023-05-15T13:10:33;7.32;;;4.68;;
70850;SDS011;58475;49.662;9.636;2023-05-15T13:13:00;6.85;;;4.50;;
70850;SDS011;58475;49.662;9.636;2023-05-15T13:15:32;7.00;;;4.70;;
70850;SDS011;58475;49.662;9.636;2023-05-15T13:18:00;7.65;;;4.22;;
70850;SDS011;58475;49.662;9.636;2023-05-15T13:20:29;7.88;;;4.35;;
70850;SDS011;58475;49.662;9.636;2023-05-15T13:22:57;5.82;;;4.28;;
70850;SDS011;58475;49.662;9.636;2023-05-15T13:25:23;7.18;;;4.97;;
70850;SDS011;58475;49.662;9.636;2023-05-15T13:27:48;7.35;;;4.80;;
70850;SDS011;58475;49.662;9.636;2023-05-15T13:30:14;7.50;;;4.22;;
70850;SDS011;58475;49.662;9.636;2023-05-15T13:32:41;5.93;;;4.30;;
70850;SDS011;58475;49.662;9.636;2023-05-15T13:35:06;5.53;;;3.67;;
70850;SDS011;58475;49.662;9.636;2023-05-15T13:37:32;6.75;;;4.43;;
70850;SDS011;58475;49.662;9.636;2023-05-15T13:39:58;5.43;;;3.85;;
70850;SDS011;58475;49.662;9.636;2023-05-15T13:42:23;8.73;;;4.63;;
70850;SDS011;58475;49.662;9.636;2023-05-15T13:44:49;9.32;;;5.70;;
70850;SDS011;58475;49.662;9.636;2023-05-15T13:47:14;7.93;;;4.88;;
70850;SDS011;58475;49.662;9.636;2023-05-15T13:49:39;10.18;;;4.72;;
70850;SDS011;58475;49.662;9.636;2023-05-15T13:52:05;8.32;;;4.25;;
70850;SDS011;58475;49.662;9.636;2023-05-15T13:54:31;6.68;;;4.47;;
70850;SDS011;58475;49.662;9.636;2023-05-15T13:56:56;7.47;;;4.80;;
70850;SDS011;58475;49.662;9.636;2023-05-15T13:59:22;7.35;;;4.30;;
70850;SDS011;58475;49.662;9.636;2023-05-15T14:01:47;7.78;;;4.43;;
70850;SDS011;58475;49.662;9.636;2023-05-15T14:04:12;6.30;;;4.18;;
70850;SDS011;58475;49.662;9.636;2023-05-15T14:06:38;6.20;;;4.47;;
70850;SDS011;58475;49.662;9.636;2023-05-15T14:09:03;8.15;;;4.18;;
70850;SDS011;58475;49.662;9.636;2023-05-15T14:11:28;7.18;;;4.50;;
70850;SDS011;58475;49.662;9.636;2023-05-15T14:13:54;5.95;;;4.13;;
70850;SDS011;58475;49.662;9.636;2023-05-15T14:16:19;8.20;;;4.22;;
70850;SDS011;58475;49.662;9.636;2023-05-15T14:18:45;7.47;;;4.25;;
70850;SDS011;58475;49.662;9.636;2023-05-15T14:21:10;6.55;;;3.70;;
70850;SDS011;58475;49.662;9.636;2023-05-15T14:23:36;6.75;;;3.90;;
70850;SDS011;58475;49.662;9.636;2023-05-15T14:26:01;6.35;;;4.15;;
70850;SDS011;58475;49.662;9.636;2023-05-15T14:28:26;7.38;;;4.22;;
70850;SDS011;58475;49.662;9.636;2023-05-15T14:30:52;6.43;;;3.80;;
70850;SDS011;58475;49.662;9.636;2023-05-15T14:33:17;6.57;;;3.50;;
70850;SDS011;58475;49.662;9.636;2023-05-15T14:35:43;6.15;;;3.90;;
70850;SDS011;58475;49.662;9.636;2023-05-15T14:38:08;5.95;;;3.42;;
70850;SDS011;58475;49.662;9.636;2023-05-15T14:40:33;5.53;;;3.50;;
70850;SDS011;58475;49.662;9.636;2023-05-15T14:42:59;6.85;;;4.68;;
70850;SDS011;58475;49.662;9.636;2023-05-15T14:45:24;6.10;;;3.67;;
70850;SDS011;58475;49.662;9.636;2023-05-15T14:47:50;6.47;;;3.25;;
70850;SDS011;58475;49.662;9.636;2023-05-15T14:50:15;5.90;;;3.70;;
70850;SDS011;58475;49.662;9.636;2023-05-15T14:52:40;6.65;;;3.50;;
70850;SDS011;58475;49.662;9.636;2023-05-15T14:55:06;4.80;;;2.92;;
70850;SDS011;58475;49.662;9.636;2023-05-15T14:57:32;6.70;;;3.33;;
70850;SDS011;58475;49.662;9.636;2023-05-15T14:59:57;6.03;;;2.88;;
70850;SDS011;58475;49.662;9.636;2023-05-15T15:02:22;5.03;;;3.15;;
70850;SDS011;58475;49.662;9.636;2023-05-15T15:04:48;5.95;;;2.85;;
70850;SDS011;58475;49.662;9.636;2023-05-15T15:07:13;5.13;;;3.00;;
70850;SDS011;58475;49.662;9.636;2023-05-15T15:09:39;4.60;;;2.92;;